createdAt,value
2023-02-05T00:01:28.933Z,99481.72
2023-02-05T00:03:55.902Z,99486.62
2023-02-05T00:06:23.216Z,99488.59
2023-02-05T00:08:50.159Z,99480.69
2023-02-05T00:11:16.818Z,99490.78
2023-02-05T00:13:44.289Z,99481.47
2023-02-05T00:16:16.146Z,99487.19
2023-02-05T00:18:43.434Z,99490.66
2023-02-05T00:21:10.979Z,99491.09
2023-02-05T00:23:38.687Z,99488.06
2023-02-05T00:26:06.387Z,99460.97
2023-02-05T00:28:34.623Z,99475.41
2023-02-05T00:31:02.166Z,99495.59
2023-02-05T00:33:29.128Z,99498.63
2023-02-05T00:35:55.994Z,99492.69
2023-02-05T00:38:22.966Z,99501.09
2023-02-05T00:40:49.813Z,99489.06
2023-02-05T00:43:16.460Z,99494.59
2023-02-05T00:45:43.392Z,99493.56
2023-02-05T00:48:10.354Z,99484.78
2023-02-05T00:50:37.305Z,99473.06
2023-02-05T00:53:04.217Z,99482.81
2023-02-05T00:55:31.173Z,99485.38
2023-02-05T00:57:58.264Z,99487.88
2023-02-05T01:00:25.284Z,99486.66
2023-02-05T01:02:52.201Z,99476.06
2023-02-05T01:05:19.206Z,99467.25
2023-02-05T01:07:46.193Z,99467.19
2023-02-05T01:10:13.121Z,99467.34
2023-02-05T01:12:40.071Z,99466.87
2023-02-05T01:15:07.988Z,99441.00
2023-02-05T01:17:34.950Z,99449.34
2023-02-05T01:20:01.841Z,99445.69
2023-02-05T01:22:28.801Z,99439.63
2023-02-05T01:24:55.670Z,99432.47
2023-02-05T01:27:22.662Z,99439.84
2023-02-05T01:29:49.528Z,99416.53
2023-02-05T01:32:16.779Z,99408.63
2023-02-05T01:34:43.994Z,99420.66
2023-02-05T01:37:11.198Z,99427.31
2023-02-05T01:39:38.337Z,99425.31
2023-02-05T01:42:15.868Z,99433.22
2023-02-05T01:44:42.711Z,99444.19
2023-02-05T01:47:09.386Z,99450.19
2023-02-05T01:49:41.546Z,99438.31
2023-02-05T01:52:14.798Z,99436.34
2023-02-05T01:54:45.173Z,99434.63
2023-02-05T01:57:17.534Z,99440.03
2023-02-05T01:59:44.642Z,99418.03
2023-02-05T02:02:11.759Z,99424.34
2023-02-05T02:04:44.111Z,99427.47
2023-02-05T02:07:20.671Z,99404.31
2023-02-05T02:09:48.688Z,99411.16
2023-02-05T02:12:20.090Z,99408.28
2023-02-05T02:14:50.024Z,99402.69
2023-02-05T02:17:17.555Z,99416.38
2023-02-05T02:19:55.578Z,99405.75
2023-02-05T02:22:33.042Z,99395.41
2023-02-05T02:25:05.410Z,99392.78
2023-02-05T02:27:37.192Z,99394.34
2023-02-05T02:30:24.291Z,99382.28
2023-02-05T02:32:57.545Z,99373.63
2023-02-05T02:35:37.021Z,99370.66
2023-02-05T02:38:12.827Z,99362.06
2023-02-05T02:40:46.831Z,99319.75
2023-02-05T02:43:29.755Z,99326.72
2023-02-05T02:46:03.307Z,99368.37
2023-02-05T02:48:31.636Z,99345.78
2023-02-05T02:50:59.095Z,99368.47
2023-02-05T02:53:30.216Z,99357.88
2023-02-05T02:55:57.604Z,99379.66
2023-02-05T02:58:28.222Z,99374.72
2023-02-05T03:00:55.824Z,99381.97
2023-02-05T03:03:25.122Z,99375.72
2023-02-05T03:05:53.300Z,99372.69
2023-02-05T03:08:26.950Z,99378.44
2023-02-05T03:10:59.888Z,99381.84
2023-02-05T03:13:26.776Z,99403.38
2023-02-05T03:15:53.653Z,99421.59
2023-02-05T03:18:20.808Z,99394.59
2023-02-05T03:20:52.105Z,99400.47
2023-02-05T03:23:19.358Z,99401.66
2023-02-05T03:25:46.300Z,99396.94
2023-02-05T03:28:13.716Z,99415.34
2023-02-05T03:30:47.309Z,99380.69
2023-02-05T03:33:26.102Z,99383.09
2023-02-05T03:36:12.027Z,99405.09
2023-02-05T03:39:07.495Z,99414.97
2023-02-05T03:41:55.337Z,99420.09
2023-02-05T03:44:24.716Z,99413.78
2023-02-05T03:47:11.489Z,99445.31
2023-02-05T03:50:01.126Z,99449.06
2023-02-05T03:52:32.848Z,99442.34
2023-02-05T03:55:13.578Z,99444.78
2023-02-05T03:57:45.193Z,99441.94
2023-02-05T04:00:13.198Z,99463.53
2023-02-05T04:02:40.142Z,99475.66
2023-02-05T04:05:07.229Z,99475.72
2023-02-05T04:07:34.093Z,99476.78
2023-02-05T04:10:00.984Z,99475.50
2023-02-05T04:12:28.010Z,99484.50
2023-02-05T04:14:54.864Z,99479.53
2023-02-05T04:17:21.717Z,99497.28
2023-02-05T04:19:48.650Z,99496.22
2023-02-05T04:22:15.552Z,99501.88
2023-02-05T04:24:42.424Z,99501.75
2023-02-05T04:27:09.312Z,99507.44
2023-02-05T04:29:36.220Z,99509.91
2023-02-05T04:32:03.079Z,99512.28
2023-02-05T04:34:30.004Z,99518.41
2023-02-05T04:36:56.883Z,99509.06
2023-02-05T04:39:23.756Z,99514.06
2023-02-05T04:41:50.612Z,99516.13
2023-02-05T04:44:17.505Z,99530.28
2023-02-05T04:46:44.438Z,99529.53
2023-02-05T04:49:11.312Z,99534.38
2023-02-05T04:51:38.168Z,99533.06
2023-02-05T04:54:05.204Z,99531.44
2023-02-05T04:56:32.077Z,99537.41
2023-02-05T04:58:58.980Z,99537.94
2023-02-05T05:01:25.903Z,99530.94
2023-02-05T05:03:52.775Z,99542.19
2023-02-05T05:06:20.933Z,99553.28
2023-02-05T05:08:47.820Z,99544.03
2023-02-05T05:11:16.829Z,99556.09
2023-02-05T05:13:43.932Z,99560.03
2023-02-05T05:16:11.871Z,99564.31
2023-02-05T05:18:39.656Z,99562.91
2023-02-05T05:21:06.850Z,99563.28
2023-02-05T05:23:34.282Z,99574.87
2023-02-05T05:26:06.907Z,99581.16
2023-02-05T05:28:35.022Z,99571.97
2023-02-05T05:31:14.203Z,99576.09
2023-02-05T05:33:41.112Z,99566.34
2023-02-05T05:36:08.379Z,99570.19
2023-02-05T05:38:35.512Z,99555.38
2023-02-05T05:41:20.662Z,99566.25
2023-02-05T05:43:48.593Z,99566.00
2023-02-05T05:46:22.192Z,99568.91
2023-02-05T05:48:53.679Z,99568.97
2023-02-05T05:51:21.160Z,99573.28
2023-02-05T05:53:48.108Z,99568.53
2023-02-05T05:56:15.568Z,99573.87
2023-02-05T05:58:42.856Z,99577.25
2023-02-05T06:01:11.248Z,99562.50
2023-02-05T06:03:38.177Z,99575.00
2023-02-05T06:06:06.867Z,99574.47
2023-02-05T06:08:33.967Z,99583.09
2023-02-05T06:11:01.030Z,99584.31
2023-02-05T06:13:28.240Z,99587.56
2023-02-05T06:15:55.275Z,99589.63
2023-02-05T06:18:23.878Z,99590.84
2023-02-05T06:20:51.034Z,99587.16
2023-02-05T06:23:17.914Z,99589.69
2023-02-05T06:25:44.839Z,99581.75
2023-02-05T06:28:11.780Z,99583.63
2023-02-05T06:30:38.959Z,99594.53
2023-02-05T06:33:05.908Z,99584.97
2023-02-05T06:35:33.056Z,99591.16
2023-02-05T06:38:00.317Z,99586.22
2023-02-05T06:40:28.311Z,99589.44
2023-02-05T06:42:55.658Z,99585.91
2023-02-05T06:45:23.011Z,99598.34
2023-02-05T06:47:50.198Z,99603.13
2023-02-05T06:50:17.179Z,99611.19
2023-02-05T06:52:44.047Z,99610.16
2023-02-05T06:55:10.912Z,99625.25
2023-02-05T06:57:37.875Z,99631.19
2023-02-05T07:00:08.547Z,99633.00
2023-02-05T07:02:35.607Z,99633.41
2023-02-05T07:05:02.478Z,99644.13
2023-02-05T07:07:29.162Z,99660.25
2023-02-05T07:09:56.036Z,99655.75
2023-02-05T07:12:23.519Z,99657.91
2023-02-05T07:14:50.421Z,99658.75
2023-02-05T07:17:17.522Z,99667.34
2023-02-05T07:19:44.388Z,99672.28
2023-02-05T07:22:13.258Z,99673.69
2023-02-05T07:24:40.121Z,99659.16
2023-02-05T07:27:06.813Z,99664.94
2023-02-05T07:29:33.701Z,99671.53
2023-02-05T07:32:00.594Z,99669.09
2023-02-05T07:34:27.469Z,99680.25
2023-02-05T07:36:54.123Z,99670.78
2023-02-05T07:39:20.995Z,99679.66
2023-02-05T07:41:47.940Z,99673.37
2023-02-05T07:44:14.835Z,99668.56
2023-02-05T07:46:41.803Z,99673.94
2023-02-05T07:49:08.752Z,99662.28
2023-02-05T07:51:35.619Z,99677.53
2023-02-05T07:54:05.896Z,99668.06
2023-02-05T07:56:32.799Z,99672.47
2023-02-05T07:58:59.659Z,99681.41
2023-02-05T08:01:26.400Z,99675.59
2023-02-05T08:03:53.391Z,99687.59
2023-02-05T08:06:20.375Z,99682.34
2023-02-05T08:08:47.216Z,99689.41
2023-02-05T08:11:14.932Z,99697.91
2023-02-05T08:13:42.704Z,99695.63
2023-02-05T08:16:09.911Z,99684.25
2023-02-05T08:18:36.997Z,99692.88
2023-02-05T08:21:04.009Z,99699.09
2023-02-05T08:23:31.063Z,99702.94
2023-02-05T08:25:59.758Z,99708.47
2023-02-05T08:28:27.620Z,99698.25
2023-02-05T08:30:54.569Z,99706.72
2023-02-05T08:33:21.445Z,99721.38
2023-02-05T08:35:48.164Z,99715.75
2023-02-05T08:38:15.007Z,99714.09
2023-02-05T08:40:41.731Z,99718.78
2023-02-05T08:43:08.746Z,99727.25
2023-02-05T08:45:36.320Z,99724.13
2023-02-05T08:48:03.501Z,99726.13
2023-02-05T08:50:30.437Z,99727.06
2023-02-05T08:52:57.256Z,99730.75
2023-02-05T08:55:23.959Z,99734.94
2023-02-05T08:57:50.881Z,99747.22
2023-02-05T09:00:18.116Z,99726.63
2023-02-05T09:02:45.060Z,99730.91
2023-02-05T09:05:11.956Z,99735.78
2023-02-05T09:07:39.451Z,99733.34
2023-02-05T09:10:08.552Z,99730.53
2023-02-05T09:12:35.512Z,99721.69
2023-02-05T09:15:02.371Z,99729.28
2023-02-05T09:17:29.050Z,99728.56
2023-02-05T09:19:55.958Z,99721.78
2023-02-05T09:22:22.669Z,99724.97
2023-02-05T09:24:49.618Z,99725.13
2023-02-05T09:27:16.510Z,99730.47
2023-02-05T09:29:43.192Z,99726.69
2023-02-05T09:32:10.065Z,99725.50
2023-02-05T09:34:36.783Z,99729.47
2023-02-05T09:37:03.679Z,99728.63
2023-02-05T09:40:17.309Z,99728.09
2023-02-05T09:43:06.917Z,99718.03
2023-02-05T09:45:38.523Z,99715.03
2023-02-05T09:48:24.058Z,99712.06
2023-02-05T09:50:51.178Z,99713.06
2023-02-05T09:53:20.141Z,99714.78
2023-02-05T09:55:47.720Z,99711.63
2023-02-05T09:58:22.002Z,99709.34
2023-02-05T10:00:55.368Z,99710.47
2023-02-05T10:03:28.693Z,99699.31
2023-02-05T10:06:13.729Z,99693.56
2023-02-05T10:08:44.528Z,99679.81
2023-02-05T10:11:34.144Z,99686.44
2023-02-05T10:14:14.432Z,99683.28
2023-02-05T10:16:51.468Z,99683.16
2023-02-05T10:19:21.294Z,99684.34
2023-02-05T10:22:03.749Z,99667.88
2023-02-05T10:24:49.001Z,99660.84
2023-02-05T10:27:22.435Z,99661.22
2023-02-05T10:30:04.325Z,99663.69
2023-02-05T10:33:00.443Z,99671.06
2023-02-05T10:35:46.667Z,99677.16
2023-02-05T10:38:24.872Z,99673.47
2023-02-05T10:40:55.042Z,99662.91
2023-02-05T10:43:41.240Z,99667.31
2023-02-05T10:46:13.489Z,99657.81
2023-02-05T10:48:44.684Z,99648.06
2023-02-05T10:51:23.494Z,99655.16
2023-02-05T10:53:50.378Z,99657.63
2023-02-05T10:56:18.074Z,99652.66
2023-02-05T10:58:59.842Z,99652.59
2023-02-05T11:01:38.225Z,99635.72
2023-02-05T11:04:16.001Z,99646.22
2023-02-05T11:06:48.429Z,99625.47
2023-02-05T11:09:24.683Z,99623.97
2023-02-05T11:12:06.477Z,99615.50
2023-02-05T11:14:39.382Z,99630.28
2023-02-05T11:17:25.317Z,99631.41
2023-02-05T11:19:56.796Z,99627.44
2023-02-05T11:22:37.421Z,99611.94
2023-02-05T11:25:22.873Z,99618.94
2023-02-05T11:27:58.979Z,99622.97
2023-02-05T11:30:49.962Z,99617.66
2023-02-05T11:33:26.976Z,99617.41
2023-02-05T11:36:04.318Z,99615.88
2023-02-05T11:38:48.959Z,99609.66
2023-02-05T11:41:27.607Z,99604.47
2023-02-05T11:43:55.456Z,99606.44
2023-02-05T11:46:24.342Z,99607.41
2023-02-05T11:48:59.678Z,99606.00
2023-02-05T11:51:35.641Z,99597.47
2023-02-05T11:54:05.178Z,99596.78
2023-02-05T11:56:32.118Z,99608.91
2023-02-05T11:59:04.291Z,99601.38
2023-02-05T12:01:34.807Z,99596.75
2023-02-05T12:04:18.233Z,99594.84
2023-02-05T12:06:53.905Z,99589.13
2023-02-05T12:09:22.504Z,99598.25
2023-02-05T12:12:18.774Z,99597.06
2023-02-05T12:15:09.958Z,99594.66
2023-02-05T12:18:04.848Z,99600.28
2023-02-05T12:20:36.649Z,99590.81
2023-02-05T12:23:12.686Z,99589.91
2023-02-05T12:25:42.739Z,99589.50
2023-02-05T12:28:40.625Z,99592.91
2023-02-05T12:31:19.932Z,99585.16
2023-02-05T12:33:57.686Z,99584.81
2023-02-05T12:36:24.457Z,99578.97
2023-02-05T12:38:55.867Z,99587.84
2023-02-05T12:41:25.682Z,99581.03
2023-02-05T12:43:58.350Z,99584.66
2023-02-05T12:46:44.074Z,99586.41
2023-02-05T12:49:13.715Z,99583.88
2023-02-05T12:51:55.181Z,99575.09
2023-02-05T12:54:57.592Z,99574.09
2023-02-05T12:57:28.851Z,99572.88
2023-02-05T13:00:04.997Z,99566.72
2023-02-05T13:02:38.876Z,99559.66
2023-02-05T13:05:23.017Z,99562.28
2023-02-05T13:08:15.534Z,99560.22
2023-02-05T13:11:02.937Z,99553.06
2023-02-05T13:13:34.743Z,99561.91
2023-02-05T13:16:10.873Z,99569.50
2023-02-05T13:18:40.165Z,99562.97
2023-02-05T13:21:37.560Z,99557.84
2023-02-05T13:24:46.277Z,99553.94
2023-02-05T13:27:44.164Z,99552.41
2023-02-05T13:30:37.066Z,99553.53
2023-02-05T13:33:07.208Z,99556.06
2023-02-05T13:35:42.976Z,99560.91
2023-02-05T13:38:37.374Z,99571.09
2023-02-05T13:41:41.867Z,99572.38
2023-02-05T13:44:21.238Z,99574.31
2023-02-05T13:47:10.181Z,99570.22
2023-02-05T13:49:56.991Z,99560.56
2023-02-05T13:52:48.258Z,99566.22
2023-02-05T13:55:30.464Z,99562.72
2023-02-05T13:58:15.177Z,99562.62
2023-02-05T14:00:43.959Z,99565.66
2023-02-05T14:03:26.063Z,99560.53
2023-02-05T14:05:53.032Z,99571.66
2023-02-05T14:08:23.160Z,99574.09
2023-02-05T14:10:58.162Z,99579.56
2023-02-05T14:13:32.770Z,99574.00
2023-02-05T14:16:28.240Z,99574.31
2023-02-05T14:19:00.909Z,99571.97
2023-02-05T14:21:30.965Z,99560.50
2023-02-05T14:24:17.689Z,99561.94
2023-02-05T14:26:52.937Z,99568.47
2023-02-05T14:29:45.814Z,99558.37
2023-02-05T14:32:13.850Z,99573.87
2023-02-05T14:34:40.691Z,99562.56
2023-02-05T14:37:15.927Z,99560.78
2023-02-05T14:39:42.582Z,99567.94
2023-02-05T14:42:14.147Z,99573.84
2023-02-05T14:44:42.375Z,99566.72
2023-02-05T14:47:28.128Z,99567.59
2023-02-05T14:50:06.313Z,99572.00
2023-02-05T14:52:39.650Z,99575.47
2023-02-05T14:55:07.463Z,99569.13
2023-02-05T14:57:39.545Z,99566.28
2023-02-05T15:00:06.617Z,99565.72
2023-02-05T15:02:52.228Z,99563.41
2023-02-05T15:05:20.138Z,99560.91
2023-02-05T15:07:47.087Z,99562.66
2023-02-05T15:10:14.877Z,99572.16
2023-02-05T15:12:55.155Z,99564.97
2023-02-05T15:15:28.758Z,99567.28
2023-02-05T15:17:56.878Z,99560.44
2023-02-05T15:20:27.344Z,99569.91
2023-02-05T15:22:55.442Z,99559.53
2023-02-05T15:25:22.081Z,99558.84
2023-02-05T15:27:55.502Z,99564.69
2023-02-05T15:30:26.320Z,99568.22
2023-02-05T15:32:58.579Z,99563.41
2023-02-05T15:35:26.004Z,99567.50
2023-02-05T15:37:52.682Z,99571.84
2023-02-05T15:40:20.521Z,99581.19
2023-02-05T15:42:48.187Z,99580.53
2023-02-05T15:45:18.331Z,99585.50
2023-02-05T15:47:45.046Z,99588.69
2023-02-05T15:50:13.995Z,99589.09
2023-02-05T15:52:40.646Z,99589.28
2023-02-05T15:55:15.709Z,99585.16
2023-02-05T15:57:42.355Z,99593.31
2023-02-05T16:00:09.582Z,99590.22
2023-02-05T16:02:40.089Z,99605.31
2023-02-05T16:05:21.335Z,99602.63
2023-02-05T16:07:52.001Z,99604.75
2023-02-05T16:10:23.199Z,99608.31
2023-02-05T16:12:59.126Z,99605.28
2023-02-05T16:15:36.715Z,99621.03
2023-02-05T16:18:03.739Z,99624.50
2023-02-05T16:20:32.052Z,99631.59
2023-02-05T16:23:00.021Z,99634.91
2023-02-05T16:25:32.864Z,99637.03
2023-02-05T16:28:00.988Z,99641.59
2023-02-05T16:30:40.670Z,99640.25
2023-02-05T16:33:07.430Z,99640.78
2023-02-05T16:35:35.283Z,99642.81
2023-02-05T16:38:03.621Z,99640.56
2023-02-05T16:40:30.242Z,99641.81
2023-02-05T16:42:56.876Z,99648.78
2023-02-05T16:45:24.481Z,99645.00
2023-02-05T16:48:10.719Z,99639.69
2023-02-05T16:50:38.539Z,99638.69
2023-02-05T16:53:13.095Z,99648.78
2023-02-05T16:55:41.323Z,99643.25
2023-02-05T16:58:07.986Z,99636.88
2023-02-05T17:00:35.006Z,99646.22
2023-02-05T17:03:05.116Z,99646.81
2023-02-05T17:05:33.632Z,99647.00
2023-02-05T17:08:07.878Z,99647.56
2023-02-05T17:10:53.481Z,99650.50
2023-02-05T17:13:26.400Z,99654.00
2023-02-05T17:15:53.570Z,99659.44
2023-02-05T17:18:29.634Z,99663.00
2023-02-05T17:21:15.224Z,99668.22
2023-02-05T17:23:45.627Z,99675.16
2023-02-05T17:26:12.328Z,99674.06
2023-02-05T17:28:43.884Z,99666.91
2023-02-05T17:31:10.621Z,99678.34
2023-02-05T17:33:37.281Z,99667.16
2023-02-05T17:36:04.074Z,99678.03
2023-02-05T17:38:30.745Z,99668.50
2023-02-05T17:41:15.916Z,99667.78
2023-02-05T17:43:42.646Z,99674.59
2023-02-05T17:46:11.020Z,99678.06
2023-02-05T17:48:39.974Z,99679.00
2023-02-05T17:51:06.814Z,99683.91
2023-02-05T17:53:33.485Z,99678.81
2023-02-05T17:56:00.186Z,99673.91
2023-02-05T17:58:26.860Z,99679.19
2023-02-05T18:00:54.754Z,99681.19
2023-02-05T18:03:21.437Z,99679.38
2023-02-05T18:05:48.089Z,99677.44
2023-02-05T18:08:14.760Z,99684.44
2023-02-05T18:10:41.466Z,99690.09
2023-02-05T18:13:08.331Z,99693.09
2023-02-05T18:15:34.964Z,99690.00
2023-02-05T18:18:01.695Z,99681.44
2023-02-05T18:20:28.376Z,99686.25
2023-02-05T18:22:55.021Z,99689.00
2023-02-05T18:25:21.699Z,99683.41
2023-02-05T18:27:48.987Z,99684.22
2023-02-05T18:30:15.865Z,99697.44
2023-02-05T18:32:42.522Z,99698.16
2023-02-05T18:35:14.479Z,99694.84
2023-02-05T18:37:44.611Z,99699.41
2023-02-05T18:40:11.824Z,99702.53
2023-02-05T18:42:38.501Z,99701.19
2023-02-05T18:45:05.294Z,99700.94
2023-02-05T18:47:31.960Z,99704.22
2023-02-05T18:49:58.610Z,99699.56
2023-02-05T18:52:27.417Z,99711.41
2023-02-05T18:54:54.395Z,99705.75
2023-02-05T18:57:21.088Z,99700.78
2023-02-05T18:59:48.723Z,99710.28
2023-02-05T19:02:15.460Z,99700.56
2023-02-05T19:04:42.102Z,99707.38
2023-02-05T19:07:08.841Z,99710.19
2023-02-05T19:09:35.556Z,99709.28
2023-02-05T19:12:02.420Z,99711.00
2023-02-05T19:14:29.198Z,99703.72
2023-02-05T19:16:55.871Z,99709.84
2023-02-05T19:19:24.847Z,99705.38
2023-02-05T19:21:53.669Z,99721.31
2023-02-05T19:24:21.639Z,99715.00
2023-02-05T19:26:49.732Z,99722.00
2023-02-05T19:29:17.963Z,99724.63
2023-02-05T19:31:45.058Z,99730.59
2023-02-05T19:34:11.832Z,99720.59
2023-02-05T19:36:38.645Z,99720.63
2023-02-05T19:39:06.556Z,99718.37
2023-02-05T19:41:33.903Z,99723.72
2023-02-05T19:44:02.472Z,99722.56
2023-02-05T19:46:31.506Z,99726.78
2023-02-05T19:49:02.258Z,99735.75
2023-02-05T19:51:29.030Z,99735.50
2023-02-05T19:53:58.973Z,99735.47
2023-02-05T19:56:25.838Z,99733.28
2023-02-05T19:58:53.676Z,99734.69
2023-02-05T20:01:27.518Z,99725.38
2023-02-05T20:03:55.290Z,99722.28
2023-02-05T20:06:22.644Z,99740.81
2023-02-05T20:08:49.388Z,99740.66
2023-02-05T20:11:16.533Z,99741.50
2023-02-05T20:13:43.249Z,99744.88
2023-02-05T20:16:11.813Z,99750.63
2023-02-05T20:18:39.201Z,99742.53
2023-02-05T20:21:09.739Z,99741.19
2023-02-05T20:23:36.697Z,99739.34
2023-02-05T20:26:07.980Z,99731.66
2023-02-05T20:28:57.466Z,99737.00
2023-02-05T20:31:33.534Z,99742.31
2023-02-05T20:34:01.160Z,99747.03
2023-02-05T20:36:27.800Z,99744.69
2023-02-05T20:38:57.479Z,99741.75
2023-02-05T20:41:24.245Z,99740.00
2023-02-05T20:43:50.910Z,99746.34
2023-02-05T20:46:17.645Z,99752.19
2023-02-05T20:48:44.364Z,99750.53
2023-02-05T20:51:12.207Z,99754.06
2023-02-05T20:53:39.003Z,99758.53
2023-02-05T20:56:06.760Z,99753.22
2023-02-05T20:58:33.670Z,99744.50
2023-02-05T21:01:09.302Z,99742.75
2023-02-05T21:03:36.496Z,99741.94
2023-02-05T21:06:03.173Z,99748.28
2023-02-05T21:08:29.819Z,99745.38
2023-02-05T21:10:56.517Z,99748.72
2023-02-05T21:13:23.189Z,99749.59
2023-02-05T21:15:57.812Z,99757.66
2023-02-05T21:18:25.141Z,99764.00
2023-02-05T21:20:51.919Z,99763.84
2023-02-05T21:23:18.745Z,99769.72
2023-02-05T21:25:45.431Z,99765.94
2023-02-05T21:28:12.619Z,99773.63
2023-02-05T21:30:39.559Z,99776.81
2023-02-05T21:33:06.211Z,99779.94
2023-02-05T21:35:32.858Z,99774.84
2023-02-05T21:37:59.517Z,99776.25
2023-02-05T21:40:26.210Z,99776.31
2023-02-05T21:42:52.882Z,99786.34
2023-02-05T21:45:19.576Z,99786.16
2023-02-05T21:47:46.220Z,99801.28
2023-02-05T21:50:12.914Z,99798.25
2023-02-05T21:52:39.579Z,99802.09
2023-02-05T21:55:06.428Z,99802.72
2023-02-05T21:57:33.091Z,99812.44
2023-02-05T21:59:59.788Z,99818.56
2023-02-05T22:02:26.560Z,99832.75
2023-02-05T22:04:53.284Z,99836.91
2023-02-05T22:07:19.942Z,99835.69
2023-02-05T22:09:46.601Z,99832.75
2023-02-05T22:12:13.290Z,99835.00
2023-02-05T22:14:39.935Z,99845.41
2023-02-05T22:17:06.616Z,99847.53
2023-02-05T22:19:33.268Z,99852.84
2023-02-05T22:21:59.962Z,99852.53
2023-02-05T22:24:26.635Z,99859.94
2023-02-05T22:26:53.369Z,99861.00
2023-02-05T22:29:20.186Z,99870.41
2023-02-05T22:31:51.092Z,99873.31
2023-02-05T22:34:17.868Z,99871.91
2023-02-05T22:36:44.742Z,99865.09
2023-02-05T22:39:11.543Z,99873.78
2023-02-05T22:41:38.924Z,99872.31
2023-02-05T22:44:06.026Z,99871.81
2023-02-05T22:46:34.277Z,99878.22
2023-02-05T22:49:01.990Z,99877.63
2023-02-05T22:51:29.701Z,99871.31
2023-02-05T22:53:56.401Z,99872.06
2023-02-05T22:56:23.100Z,99883.28
2023-02-05T22:58:50.199Z,99879.09
2023-02-05T23:01:17.876Z,99880.16
2023-02-05T23:03:46.027Z,99875.38
2023-02-05T23:06:16.883Z,99883.62
2023-02-05T23:08:43.911Z,99883.44
2023-02-05T23:11:12.976Z,99882.09
2023-02-05T23:13:40.264Z,99893.47
2023-02-05T23:16:11.227Z,99890.62
2023-02-05T23:18:38.263Z,99891.03
2023-02-05T23:21:08.699Z,99900.91
2023-02-05T23:23:35.436Z,99896.03
2023-02-05T23:26:05.873Z,99896.78
2023-02-05T23:28:32.560Z,99901.75
2023-02-05T23:30:59.281Z,99902.59
2023-02-05T23:33:26.019Z,99899.12
2023-02-05T23:35:52.682Z,99886.72
2023-02-05T23:38:19.349Z,99900.66
2023-02-05T23:40:45.998Z,99896.06
2023-02-05T23:43:12.640Z,99892.84
2023-02-05T23:45:39.278Z,99895.75
2023-02-05T23:48:05.957Z,99906.38
2023-02-05T23:50:32.603Z,99905.84
2023-02-05T23:52:59.401Z,99911.31
2023-02-05T23:55:26.043Z,99907.09
2023-02-05T23:57:53.564Z,99914.69
